Time;durP1;ratioP1;P1;durP2;ratioP2;P2;SDS_P1;SDS_P2;PMS_P1;PMS_P2;Temp;Humidity;BMP_temperature;BMP_pressure;BME280_temperature;BME280_humidity;BME280_pressure;Samples;Min_cycle;Max_cycle;Signal;HPM_P1;HPM_P2
2023/12/07 00:00:23;;;;;;;6.80;4.90;;;;;;;;;;5029497;28;20223;-63
2023/12/07 00:02:50;;;;;;;5.47;4.77;;;;;;;;;;5035725;28;20203;-63
2023/12/07 00:05:18;;;;;;;7.00;5.10;;;;;;;;;;5039378;28;20204;-63
2023/12/07 00:07:45;;;;;;;4.90;4.50;;;;;;;;;;5037427;28;20215;-63
2023/12/07 00:10:13;;;;;;;6.77;4.47;;;;;;;;;;5039058;28;20249;-64
2023/12/07 00:12:41;;;;;;;7.93;4.73;;;;;;;;;;5034425;28;20223;-63
2023/12/07 00:15:09;;;;;;;6.10;4.80;;;;;;;;;;5045126;28;20212;-63
2023/12/07 00:17:36;;;;;;;5.73;4.70;;;;;;;;;;5040448;28;20242;-63
2023/12/07 00:20:04;;;;;;;5.40;4.47;;;;;;;;;;5045203;28;20215;-63
2023/12/07 00:22:31;;;;;;;6.30;4.20;;;;;;;;;;5031306;28;20222;-63
2023/12/07 00:24:58;;;;;;;7.67;4.37;;;;;;;;;;5034273;28;20214;-62
2023/12/07 00:27:27;;;;;;;6.07;4.23;;;;;;;;;;5045544;28;20223;-63
2023/12/07 00:29:54;;;;;;;8.93;4.87;;;;;;;;;;5045297;28;20593;-62
2023/12/07 00:32:21;;;;;;;8.47;4.90;;;;;;;;;;5046464;28;20218;-64
2023/12/07 00:34:49;;;;;;;5.13;4.17;;;;;;;;;;5045235;28;20215;-64
2023/12/07 00:37:16;;;;;;;6.27;4.53;;;;;;;;;;5046682;28;20234;-64
2023/12/07 00:39:43;;;;;;;5.50;4.50;;;;;;;;;;5046745;28;20302;-64
2023/12/07 00:42:10;;;;;;;6.33;4.23;;;;;;;;;;5028189;28;20207;-63
2023/12/07 00:44:41;;;;;;;8.30;4.73;;;;;;;;;;5031719;28;20207;-63
2023/12/07 00:47:08;;;;;;;6.53;4.80;;;;;;;;;;5046547;28;20211;-63
2023/12/07 00:49:39;;;;;;;5.77;4.40;;;;;;;;;;5046600;28;20204;-63
2023/12/07 00:52:06;;;;;;;8.40;4.77;;;;;;;;;;5044772;28;20215;-64
2023/12/07 00:54:33;;;;;;;8.80;4.90;;;;;;;;;;5046378;28;20234;-63
2023/12/07 00:57:00;;;;;;;5.90;4.80;;;;;;;;;;5034187;28;20705;-63
2023/12/07 00:59:33;;;;;;;8.97;5.47;;;;;;;;;;5030732;28;20215;-63
2023/12/07 01:02:02;;;;;;;10.60;5.80;;;;;;;;;;5045706;28;20207;-64
2023/12/07 01:04:29;;;;;;;7.07;5.57;;;;;;;;;;5033965;28;20296;-61
2023/12/07 01:06:56;;;;;;;8.10;6.00;;;;;;;;;;5032575;28;20856;-63
2023/12/07 01:09:23;;;;;;;10.67;6.03;;;;;;;;;;5034140;28;20215;-63
2023/12/07 01:11:50;;;;;;;9.33;5.63;;;;;;;;;;5031987;28;20211;-63
2023/12/07 01:14:17;;;;;;;8.53;5.77;;;;;;;;;;5034838;28;20203;-63
2023/12/07 01:16:44;;;;;;;8.77;6.07;;;;;;;;;;5035069;28;20235;-63
2023/12/07 01:19:14;;;;;;;8.07;6.13;;;;;;;;;;5029033;28;20209;-63
2023/12/07 01:21:41;;;;;;;11.20;5.87;;;;;;;;;;5045999;28;20233;-63
2023/12/07 01:24:08;;;;;;;8.77;5.93;;;;;;;;;;5044251;28;20309;-63
2023/12/07 01:26:35;;;;;;;7.20;5.10;;;;;;;;;;5027776;28;20218;-63
2023/12/07 01:29:02;;;;;;;12.70;5.67;;;;;;;;;;5030322;28;20207;-63
2023/12/07 01:31:29;;;;;;;9.23;6.30;;;;;;;;;;5027419;28;20239;-63
2023/12/07 01:33:56;;;;;;;13.93;6.43;;;;;;;;;;5035803;28;20214;-63
2023/12/07 01:36:25;;;;;;;8.10;6.23;;;;;;;;;;5029510;28;20214;-63
2023/12/07 01:38:52;;;;;;;11.63;7.47;;;;;;;;;;5032056;28;20203;-63
2023/12/07 01:41:19;;;;;;;16.80;8.27;;;;;;;;;;5045459;28;20231;-63
2023/12/07 01:43:47;;;;;;;9.20;6.00;;;;;;;;;;5042431;28;20210;-63
2023/12/07 01:46:14;;;;;;;11.33;7.27;;;;;;;;;;5046211;28;20241;-63
2023/12/07 01:48:41;;;;;;;11.37;6.83;;;;;;;;;;5042817;28;20206;-62
2023/12/07 01:51:09;;;;;;;10.70;6.67;;;;;;;;;;5042773;28;20205;-63
2023/12/07 01:53:39;;;;;;;12.10;6.60;;;;;;;;;;5045731;28;20206;-63
2023/12/07 01:56:07;;;;;;;8.13;5.53;;;;;;;;;;5043256;28;20217;-63
2023/12/07 01:58:34;;;;;;;8.77;5.83;;;;;;;;;;5038136;28;20254;-63
2023/12/07 02:01:02;;;;;;;8.93;6.00;;;;;;;;;;5039511;28;20213;-63
2023/12/07 02:03:30;;;;;;;8.83;5.30;;;;;;;;;;5045674;28;20214;-63
2023/12/07 02:05:57;;;;;;;11.70;5.73;;;;;;;;;;5039838;28;20612;-62
2023/12/07 02:08:24;;;;;;;7.20;5.00;;;;;;;;;;5034239;28;20576;-63
2023/12/07 02:10:53;;;;;;;7.07;4.67;;;;;;;;;;5026514;28;20198;-63
2023/12/07 02:13:20;;;;;;;7.63;5.60;;;;;;;;;;5041567;28;20237;-63
2023/12/07 02:15:47;;;;;;;6.07;4.90;;;;;;;;;;5043436;28;20233;-62
2023/12/07 02:18:16;;;;;;;5.90;5.17;;;;;;;;;;5033655;28;20231;-63
2023/12/07 02:20:47;;;;;;;9.40;5.13;;;;;;;;;;5029475;28;20215;-63
2023/12/07 02:23:15;;;;;;;8.23;5.50;;;;;;;;;;5031682;28;20206;-63
2023/12/07 02:25:46;;;;;;;7.90;5.33;;;;;;;;;;5029434;28;20946;-63
2023/12/07 02:28:15;;;;;;;6.80;4.93;;;;;;;;;;5046682;28;20206;-62
2023/12/07 02:30:42;;;;;;;6.40;4.80;;;;;;;;;;5031006;28;20228;-63
2023/12/07 02:33:09;;;;;;;6.93;5.13;;;;;;;;;;5031611;28;20247;-63
2023/12/07 02:35:37;;;;;;;7.77;4.73;;;;;;;;;;5029241;28;20242;-63
2023/12/07 02:38:04;;;;;;;8.03;5.20;;;;;;;;;;5036395;28;20223;-63
2023/12/07 02:40:32;;;;;;;10.77;4.60;;;;;;;;;;5040734;28;20894;-63
2023/12/07 02:42:59;;;;;;;8.93;4.60;;;;;;;;;;5031357;28;20205;-62
2023/12/07 02:45:28;;;;;;;8.67;5.40;;;;;;;;;;5029024;28;20451;-61
2023/12/07 02:47:55;;;;;;;6.70;4.90;;;;;;;;;;5035436;28;20612;-62
2023/12/07 02:50:22;;;;;;;9.77;5.43;;;;;;;;;;5048158;28;20222;-61
2023/12/07 02:52:49;;;;;;;6.97;5.40;;;;;;;;;;5041134;28;20217;-61
2023/12/07 02:55:16;;;;;;;9.80;5.53;;;;;;;;;;5041364;28;20212;-62
2023/12/07 02:57:44;;;;;;;8.13;5.27;;;;;;;;;;5047724;28;21751;-62
2023/12/07 03:00:12;;;;;;;6.30;4.63;;;;;;;;;;5046880;28;20202;-62
2023/12/07 03:02:41;;;;;;;6.93;5.40;;;;;;;;;;5044801;28;20219;-61
2023/12/07 03:05:08;;;;;;;8.67;5.60;;;;;;;;;;5044113;28;20215;-61
2023/12/07 03:07:36;;;;;;;7.70;5.57;;;;;;;;;;5046049;28;20207;-61
2023/12/07 03:10:03;;;;;;;5.87;4.83;;;;;;;;;;5046622;28;20209;-64
2023/12/07 03:12:30;;;;;;;7.37;5.13;;;;;;;;;;5043082;28;20207;-62
2023/12/07 03:14:58;;;;;;;6.87;4.77;;;;;;;;;;5034876;28;20217;-62
2023/12/07 03:17:25;;;;;;;7.90;4.97;;;;;;;;;;5046879;28;20236;-62
2023/12/07 03:19:53;;;;;;;9.37;5.80;;;;;;;;;;5046278;28;20204;-62
2023/12/07 03:22:20;;;;;;;5.40;4.67;;;;;;;;;;5047882;28;20726;-62
2023/12/07 03:24:48;;;;;;;5.53;4.97;;;;;;;;;;5034917;28;20214;-62
2023/12/07 03:27:15;;;;;;;6.73;4.80;;;;;;;;;;5029394;28;20211;-62
2023/12/07 03:29:42;;;;;;;7.27;5.30;;;;;;;;;;5030909;28;20210;-62
2023/12/07 03:32:09;;;;;;;8.97;5.53;;;;;;;;;;5029320;28;20225;-62
2023/12/07 03:34:36;;;;;;;7.60;5.30;;;;;;;;;;5035450;28;20205;-62
2023/12/07 03:37:05;;;;;;;8.27;5.43;;;;;;;;;;5039400;28;20216;-62
2023/12/07 03:39:33;;;;;;;7.23;5.27;;;;;;;;;;5030775;28;20204;-61
2023/12/07 03:42:00;;;;;;;6.33;4.87;;;;;;;;;;5045282;28;20201;-62
2023/12/07 03:44:27;;;;;;;10.27;5.47;;;;;;;;;;5027938;28;20205;-61
2023/12/07 03:46:54;;;;;;;8.57;4.53;;;;;;;;;;5032786;28;20217;-62
2023/12/07 03:49:21;;;;;;;10.63;5.13;;;;;;;;;;5043131;28;20201;-61
2023/12/07 03:51:48;;;;;;;8.07;4.97;;;;;;;;;;5043027;28;20205;-61
2023/12/07 03:54:17;;;;;;;10.43;5.63;;;;;;;;;;5039909;28;20206;-62
2023/12/07 03:56:44;;;;;;;8.93;5.53;;;;;;;;;;5035503;28;20201;-62
2023/12/07 03:59:11;;;;;;;9.50;5.37;;;;;;;;;;5044642;28;20229;-62
2023/12/07 04:01:38;;;;;;;9.30;5.87;;;;;;;;;;5045378;28;20210;-63
2023/12/07 04:04:05;;;;;;;10.30;6.30;;;;;;;;;;5037124;28;20705;-62
2023/12/07 04:06:32;;;;;;;11.20;5.97;;;;;;;;;;5035590;28;20240;-62
2023/12/07 04:08:59;;;;;;;10.27;5.83;;;;;;;;;;5030925;28;20208;-62
2023/12/07 04:11:28;;;;;;;9.37;5.70;;;;;;;;;;5041722;28;20207;-62
2023/12/07 04:13:55;;;;;;;7.07;5.27;;;;;;;;;;5033688;28;20208;-62
2023/12/07 04:16:22;;;;;;;11.17;5.93;;;;;;;;;;5029910;28;20247;-62
2023/12/07 04:18:49;;;;;;;9.70;5.50;;;;;;;;;;5045483;28;20307;-62
2023/12/07 04:21:16;;;;;;;10.50;5.80;;;;;;;;;;5047100;28;20205;-63
2023/12/07 04:23:43;;;;;;;9.77;5.53;;;;;;;;;;5045266;28;20239;-62
2023/12/07 04:26:10;;;;;;;7.50;5.43;;;;;;;;;;5045235;28;20227;-62
2023/12/07 04:28:38;;;;;;;7.80;5.63;;;;;;;;;;5046031;28;20205;-62
2023/12/07 04:31:06;;;;;;;7.10;5.33;;;;;;;;;;5027724;28;20210;-62
2023/12/07 04:33:33;;;;;;;6.10;5.13;;;;;;;;;;5038095;28;20213;-62
2023/12/07 04:36:00;;;;;;;9.57;5.53;;;;;;;;;;5045453;28;21062;-63
2023/12/07 04:38:27;;;;;;;9.87;6.23;;;;;;;;;;5047014;28;20241;-62
2023/12/07 04:40:54;;;;;;;13.10;6.33;;;;;;;;;;5034300;28;20212;-62
2023/12/07 04:43:21;;;;;;;12.07;6.70;;;;;;;;;;5039574;28;20200;-62
2023/12/07 04:45:49;;;;;;;11.23;5.87;;;;;;;;;;5030328;28;20217;-62
2023/12/07 04:48:16;;;;;;;7.80;5.50;;;;;;;;;;5030847;28;20209;-62
2023/12/07 04:50:43;;;;;;;8.37;5.87;;;;;;;;;;5036345;28;20301;-62
2023/12/07 04:53:10;;;;;;;6.93;5.63;;;;;;;;;;5046543;28;20759;-62
2023/12/07 04:55:37;;;;;;;7.10;5.17;;;;;;;;;;5038151;28;20211;-62
2023/12/07 04:58:04;;;;;;;8.90;5.30;;;;;;;;;;5041963;28;20217;-63
2023/12/07 05:00:32;;;;;;;8.90;5.67;;;;;;;;;;5042924;28;20208;-62
2023/12/07 05:03:00;;;;;;;9.93;5.80;;;;;;;;;;5037642;28;20216;-62
2023/12/07 05:05:27;;;;;;;10.43;5.27;;;;;;;;;;5027621;28;20209;-62
2023/12/07 05:07:54;;;;;;;10.40;5.27;;;;;;;;;;5028755;28;20864;-62
2023/12/07 05:10:21;;;;;;;9.20;5.80;;;;;;;;;;5027030;28;20215;-62
2023/12/07 05:12:48;;;;;;;12.57;5.57;;;;;;;;;;5039752;28;20203;-62
2023/12/07 05:15:15;;;;;;;6.50;4.63;;;;;;;;;;5026513;28;20216;-62
2023/12/07 05:17:42;;;;;;;9.70;5.10;;;;;;;;;;5037177;28;20782;-62
2023/12/07 05:20:12;;;;;;;7.83;5.20;;;;;;;;;;5040668;28;20200;-62
2023/12/07 05:22:39;;;;;;;8.03;4.97;;;;;;;;;;5026629;28;20200;-62
2023/12/07 05:25:07;;;;;;;11.27;6.30;;;;;;;;;;5044599;28;20196;-62
2023/12/07 05:27:34;;;;;;;9.87;5.30;;;;;;;;;;5045527;28;20204;-62
2023/12/07 05:30:01;;;;;;;12.77;5.67;;;;;;;;;;5043057;28;20294;-62
2023/12/07 05:32:28;;;;;;;6.53;4.70;;;;;;;;;;5041611;28;20207;-62
2023/12/07 05:34:55;;;;;;;10.03;5.50;;;;;;;;;;5042157;28;20960;-62
2023/12/07 05:37:23;;;;;;;7.03;5.23;;;;;;;;;;5032538;28;20208;-62
2023/12/07 05:39:50;;;;;;;7.37;5.23;;;;;;;;;;5040519;28;20242;-62
2023/12/07 05:42:18;;;;;;;13.47;5.80;;;;;;;;;;5036188;28;20663;-62
2023/12/07 05:44:45;;;;;;;7.30;5.27;;;;;;;;;;5032112;28;20212;-62
2023/12/07 05:47:12;;;;;;;9.67;6.43;;;;;;;;;;5028795;28;20203;-63
2023/12/07 05:49:39;;;;;;;12.07;6.77;;;;;;;;;;5026978;28;20207;-64
2023/12/07 05:52:07;;;;;;;7.23;5.17;;;;;;;;;;5039641;28;20196;-63
2023/12/07 05:54:35;;;;;;;10.63;6.80;;;;;;;;;;5040572;28;20211;-64
2023/12/07 05:57:02;;;;;;;9.83;5.90;;;;;;;;;;5049230;28;20670;-64
2023/12/07 05:59:29;;;;;;;9.20;6.67;;;;;;;;;;5049777;28;20260;-64
2023/12/07 06:01:56;;;;;;;10.53;5.60;;;;;;;;;;5045688;28;20215;-64
2023/12/07 06:04:23;;;;;;;12.50;6.80;;;;;;;;;;5031835;28;20207;-64
2023/12/07 06:06:51;;;;;;;12.90;6.37;;;;;;;;;;5030495;28;20625;-64
2023/12/07 06:09:18;;;;;;;13.27;7.87;;;;;;;;;;5040951;28;20266;-64
2023/12/07 06:11:46;;;;;;;11.60;7.30;;;;;;;;;;5033948;28;20674;-63
2023/12/07 06:14:13;;;;;;;14.80;7.50;;;;;;;;;;5029763;28;20220;-63
2023/12/07 06:16:40;;;;;;;12.70;8.07;;;;;;;;;;5033700;28;20247;-64
2023/12/07 06:19:07;;;;;;;19.07;8.20;;;;;;;;;;5033443;28;20223;-63
2023/12/07 06:21:34;;;;;;;14.53;7.93;;;;;;;;;;5036855;28;20287;-63
2023/12/07 06:24:01;;;;;;;14.57;8.97;;;;;;;;;;5027750;28;20221;-64
2023/12/07 06:26:28;;;;;;;16.77;9.07;;;;;;;;;;5048906;28;20227;-61
2023/12/07 06:28:57;;;;;;;18.97;9.83;;;;;;;;;;5047683;28;20553;-61
2023/12/07 06:31:24;;;;;;;13.10;7.87;;;;;;;;;;5043773;28;20204;-63
2023/12/07 06:33:51;;;;;;;12.60;6.80;;;;;;;;;;5035882;28;20216;-63
2023/12/07 06:36:22;;;;;;;12.30;7.40;;;;;;;;;;5041707;28;20232;-64
2023/12/07 06:38:49;;;;;;;12.70;7.13;;;;;;;;;;5047069;28;20235;-63
2023/12/07 06:41:16;;;;;;;9.33;7.30;;;;;;;;;;5048762;28;20216;-61
2023/12/07 06:43:44;;;;;;;9.43;6.57;;;;;;;;;;5048668;28;20218;-64
2023/12/07 06:46:13;;;;;;;13.07;6.70;;;;;;;;;;5048558;28;20287;-63
2023/12/07 06:48:41;;;;;;;12.40;6.57;;;;;;;;;;5031575;28;20224;-64
2023/12/07 06:51:08;;;;;;;10.17;7.07;;;;;;;;;;5028867;28;20212;-63
2023/12/07 06:53:35;;;;;;;11.03;7.47;;;;;;;;;;5030007;28;20208;-63
2023/12/07 06:56:02;;;;;;;11.90;7.40;;;;;;;;;;5048670;28;20290;-64
2023/12/07 06:58:29;;;;;;;11.50;7.10;;;;;;;;;;5048439;28;20881;-63
2023/12/07 07:00:57;;;;;;;11.27;7.37;;;;;;;;;;5046261;28;20257;-64
2023/12/07 07:03:31;;;;;;;14.40;7.13;;;;;;;;;;5045120;28;20231;-61
2023/12/07 07:05:59;;;;;;;11.27;7.23;;;;;;;;;;5048079;28;20812;-62
2023/12/07 07:08:26;;;;;;;11.23;7.50;;;;;;;;;;5048093;28;20250;-62
2023/12/07 07:10:53;;;;;;;11.07;7.30;;;;;;;;;;5047799;28;20204;-61
2023/12/07 07:13:20;;;;;;;12.07;6.93;;;;;;;;;;5032397;28;20816;-62
2023/12/07 07:15:48;;;;;;;10.70;7.53;;;;;;;;;;5033542;28;20334;-62
2023/12/07 07:18:15;;;;;;;11.70;7.90;;;;;;;;;;5047482;28;20240;-60
2023/12/07 07:20:44;;;;;;;14.73;7.97;;;;;;;;;;5047654;28;20452;-62
2023/12/07 07:23:12;;;;;;;10.97;7.97;;;;;;;;;;5047615;28;20577;-61
2023/12/07 07:25:39;;;;;;;14.37;8.43;;;;;;;;;;5047831;28;20259;-62
2023/12/07 07:28:07;;;;;;;11.77;7.83;;;;;;;;;;5038022;28;20232;-62
2023/12/07 07:30:34;;;;;;;12.53;8.53;;;;;;;;;;5036097;28;20199;-62
2023/12/07 07:33:02;;;;;;;14.20;8.03;;;;;;;;;;5038980;28;20212;-63
2023/12/07 07:35:29;;;;;;;13.90;8.00;;;;;;;;;;5038436;28;20205;-62
2023/12/07 07:37:57;;;;;;;12.60;8.13;;;;;;;;;;5035903;28;20602;-62
2023/12/07 07:40:24;;;;;;;11.87;7.77;;;;;;;;;;5037469;28;20228;-62
2023/12/07 07:42:51;;;;;;;12.27;8.27;;;;;;;;;;5037342;28;20274;-61
2023/12/07 07:45:18;;;;;;;17.20;8.83;;;;;;;;;;5035683;28;20204;-62
2023/12/07 07:47:46;;;;;;;14.73;8.33;;;;;;;;;;5036953;28;20205;-62
2023/12/07 07:50:13;;;;;;;16.03;8.13;;;;;;;;;;5035209;28;20231;-62
2023/12/07 07:52:40;;;;;;;12.97;7.93;;;;;;;;;;5036875;28;20215;-62
2023/12/07 07:55:09;;;;;;;15.10;8.20;;;;;;;;;;5041245;28;20806;-62
2023/12/07 07:57:36;;;;;;;12.60;7.33;;;;;;;;;;5046670;28;20208;-63
2023/12/07 08:00:05;;;;;;;11.83;7.40;;;;;;;;;;5046437;28;20242;-62
2023/12/07 08:02:32;;;;;;;11.50;7.63;;;;;;;;;;5046422;28;20866;-62
2023/12/07 08:04:59;;;;;;;12.47;7.70;;;;;;;;;;5045295;28;20211;-63
2023/12/07 08:07:26;;;;;;;11.67;7.10;;;;;;;;;;5037228;28;20210;-62
2023/12/07 08:09:53;;;;;;;11.67;7.57;;;;;;;;;;5026429;28;20217;-62
2023/12/07 08:12:23;;;;;;;11.27;6.47;;;;;;;;;;5042604;28;20250;-62
2023/12/07 08:14:50;;;;;;;8.83;5.93;;;;;;;;;;5045906;28;20254;-62
2023/12/07 08:17:19;;;;;;;10.70;6.40;;;;;;;;;;5045982;28;20246;-62
2023/12/07 08:19:46;;;;;;;9.40;6.10;;;;;;;;;;5046173;28;20647;-62
2023/12/07 08:22:13;;;;;;;12.37;6.23;;;;;;;;;;5045858;28;20223;-61
2023/12/07 08:24:40;;;;;;;9.60;6.77;;;;;;;;;;5028763;28;20213;-61
2023/12/07 08:27:07;;;;;;;10.93;7.27;;;;;;;;;;5026011;28;20209;-61
2023/12/07 08:29:36;;;;;;;15.97;8.47;;;;;;;;;;5026085;28;20209;-61
2023/12/07 08:32:03;;;;;;;14.73;8.37;;;;;;;;;;5027544;28;20219;-62
2023/12/07 08:34:30;;;;;;;15.70;8.90;;;;;;;;;;5045352;28;20818;-62
2023/12/07 08:36:58;;;;;;;14.63;8.80;;;;;;;;;;5045669;28;20213;-61
2023/12/07 08:39:26;;;;;;;15.23;9.47;;;;;;;;;;5045687;28;20326;-64
2023/12/07 08:41:53;;;;;;;22.37;9.90;;;;;;;;;;5045780;28;20219;-62
2023/12/07 08:44:20;;;;;;;26.07;12.17;;;;;;;;;;5045605;28;20217;-61
2023/12/07 08:46:48;;;;;;;27.00;12.97;;;;;;;;;;5045570;28;20214;-62
2023/12/07 08:49:15;;;;;;;26.03;13.37;;;;;;;;;;5045515;28;20597;-61
2023/12/07 08:51:42;;;;;;;25.73;13.33;;;;;;;;;;5045396;28;20238;-62
2023/12/07 08:54:09;;;;;;;22.00;12.50;;;;;;;;;;5045330;28;20214;-62
2023/12/07 08:56:36;;;;;;;19.33;10.93;;;;;;;;;;5045402;28;20217;-61
2023/12/07 08:59:04;;;;;;;18.90;9.90;;;;;;;;;;5045243;28;20234;-62
2023/12/07 09:01:33;;;;;;;16.20;9.40;;;;;;;;;;5025161;28;20725;-62
2023/12/07 09:04:01;;;;;;;19.80;9.50;;;;;;;;;;5042636;28;20269;-61
2023/12/07 09:06:28;;;;;;;14.40;8.87;;;;;;;;;;5036383;28;20771;-62
2023/12/07 09:08:56;;;;;;;16.17;8.20;;;;;;;;;;5033669;28;20210;-62
2023/12/07 09:11:23;;;;;;;15.23;8.73;;;;;;;;;;5035328;28;20211;-61
2023/12/07 09:13:50;;;;;;;15.00;8.27;;;;;;;;;;5035284;28;20229;-62
2023/12/07 09:16:17;;;;;;;18.80;8.63;;;;;;;;;;5041887;28;20231;-62
2023/12/07 09:18:45;;;;;;;20.60;8.77;;;;;;;;;;5045523;28;20211;-61
2023/12/07 09:21:13;;;;;;;16.70;8.20;;;;;;;;;;5043356;28;20278;-62
2023/12/07 09:23:40;;;;;;;14.10;7.97;;;;;;;;;;5025532;28;20688;-62
2023/12/07 09:26:07;;;;;;;13.87;7.67;;;;;;;;;;5024416;28;20349;-61
2023/12/07 09:28:34;;;;;;;16.53;7.77;;;;;;;;;;5028467;28;20216;-65
2023/12/07 09:31:01;;;;;;;13.63;8.13;;;;;;;;;;5027574;28;20203;-62
2023/12/07 09:33:28;;;;;;;14.20;7.83;;;;;;;;;;5035770;28;20206;-62
2023/12/07 09:35:55;;;;;;;13.07;7.60;;;;;;;;;;5024565;28;20682;-62
2023/12/07 09:38:24;;;;;;;18.43;7.30;;;;;;;;;;5024642;28;20264;-62
2023/12/07 09:40:54;;;;;;;11.47;6.97;;;;;;;;;;5037263;28;20237;-62
2023/12/07 09:43:21;;;;;;;21.37;8.83;;;;;;;;;;5044908;28;20229;-63
2023/12/07 09:45:49;;;;;;;20.93;8.87;;;;;;;;;;5044959;28;20226;-63
2023/12/07 09:48:17;;;;;;;16.87;8.33;;;;;;;;;;5044949;28;20202;-62
2023/12/07 09:50:44;;;;;;;26.00;9.47;;;;;;;;;;5044618;28;20211;-63
2023/12/07 09:53:11;;;;;;;20.67;9.40;;;;;;;;;;5044366;28;20211;-66
2023/12/07 09:55:41;;;;;;;15.60;8.13;;;;;;;;;;5044545;28;20210;-67
2023/12/07 09:58:08;;;;;;;32.63;8.73;;;;;;;;;;5044426;28;20214;-67
2023/12/07 10:00:35;;;;;;;15.90;8.90;;;;;;;;;;5037441;28;20250;-67
2023/12/07 10:03:02;;;;;;;16.93;8.80;;;;;;;;;;5042508;28;20219;-68
2023/12/07 10:05:29;;;;;;;38.37;9.63;;;;;;;;;;5043771;28;20218;-67
2023/12/07 10:07:56;;;;;;;19.73;9.53;;;;;;;;;;5044488;28;20221;-68
2023/12/07 10:10:23;;;;;;;17.83;9.17;;;;;;;;;;5044171;28;20206;-68
2023/12/07 10:12:54;;;;;;;19.70;9.93;;;;;;;;;;5038945;28;20223;-66
2023/12/07 10:15:22;;;;;;;21.60;10.03;;;;;;;;;;5043792;28;20218;-66
2023/12/07 10:17:50;;;;;;;17.97;10.33;;;;;;;;;;5044155;28;20250;-66
2023/12/07 10:20:17;;;;;;;19.97;10.53;;;;;;;;;;5044190;28;20224;-62
2023/12/07 10:22:45;;;;;;;18.93;10.23;;;;;;;;;;5043946;28;20211;-63
2023/12/07 10:25:12;;;;;;;19.13;9.97;;;;;;;;;;5044734;28;20306;-64
2023/12/07 10:27:40;;;;;;;21.20;10.80;;;;;;;;;;5044895;28;20674;-64
2023/12/07 10:30:12;;;;;;;21.50;9.80;;;;;;;;;;5044206;28;21118;-62
2023/12/07 10:32:39;;;;;;;21.17;11.00;;;;;;;;;;5044312;28;20215;-61
2023/12/07 10:35:07;;;;;;;22.63;10.93;;;;;;;;;;5042526;28;20291;-65
2023/12/07 10:37:34;;;;;;;21.17;10.70;;;;;;;;;;5045431;28;20222;-65
2023/12/07 10:40:02;;;;;;;15.93;9.63;;;;;;;;;;5048169;28;20235;-65
2023/12/07 10:42:32;;;;;;;31.30;10.47;;;;;;;;;;5048097;28;20203;-65
2023/12/07 10:44:59;;;;;;;22.17;10.07;;;;;;;;;;5048196;28;20223;-63
2023/12/07 10:47:28;;;;;;;19.53;9.83;;;;;;;;;;5044043;28;20214;-63
2023/12/07 10:49:58;;;;;;;18.00;9.77;;;;;;;;;;5034694;28;20196;-65
2023/12/07 10:52:26;;;;;;;22.63;10.00;;;;;;;;;;5042846;28;20273;-66
2023/12/07 10:55:02;;;;;;;18.53;10.40;;;;;;;;;;5047799;28;20210;-64
2023/12/07 10:57:31;;;;;;;25.07;10.83;;;;;;;;;;5047441;28;20207;-64
2023/12/07 10:59:59;;;;;;;25.00;11.03;;;;;;;;;;5042496;28;20220;-66
2023/12/07 11:02:28;;;;;;;20.87;9.90;;;;;;;;;;5031463;28;20208;-64
2023/12/07 11:04:56;;;;;;;22.57;10.40;;;;;;;;;;5041313;28;20265;-62
2023/12/07 11:07:23;;;;;;;29.33;10.83;;;;;;;;;;5039374;28;20212;-61
2023/12/07 11:09:54;;;;;;;22.07;10.23;;;;;;;;;;5039150;28;20200;-62
2023/12/07 11:12:29;;;;;;;20.83;10.57;;;;;;;;;;5036231;28;20268;-62
2023/12/07 11:14:56;;;;;;;20.20;10.33;;;;;;;;;;5043550;28;20210;-61
2023/12/07 11:17:23;;;;;;;16.53;9.23;;;;;;;;;;5035043;28;20243;-61
2023/12/07 11:19:52;;;;;;;18.00;10.80;;;;;;;;;;5034617;28;20254;-64
2023/12/07 11:22:19;;;;;;;23.40;10.90;;;;;;;;;;5043972;28;20199;-64
2023/12/07 11:24:53;;;;;;;19.53;10.73;;;;;;;;;;5033707;28;20204;-64
2023/12/07 11:27:20;;;;;;;24.47;11.20;;;;;;;;;;5042911;28;20293;-64
2023/12/07 11:29:47;;;;;;;21.37;10.67;;;;;;;;;;5046552;28;20204;-64
2023/12/07 11:32:15;;;;;;;21.77;10.60;;;;;;;;;;5040217;28;20232;-64
2023/12/07 11:34:42;;;;;;;27.70;11.63;;;;;;;;;;5047207;28;20756;-64
2023/12/07 11:37:11;;;;;;;22.90;10.93;;;;;;;;;;5046885;28;20207;-64
2023/12/07 11:39:39;;;;;;;19.80;10.37;;;;;;;;;;5036851;28;20212;-64
2023/12/07 11:42:09;;;;;;;32.03;11.87;;;;;;;;;;5042093;28;20318;-64
2023/12/07 11:44:36;;;;;;;25.30;11.30;;;;;;;;;;5046341;28;20232;-64
2023/12/07 11:47:03;;;;;;;27.20;12.13;;;;;;;;;;5041786;28;20255;-64
2023/12/07 11:49:31;;;;;;;23.20;12.63;;;;;;;;;;5032526;28;20207;-64
2023/12/07 11:51:58;;;;;;;28.87;11.77;;;;;;;;;;5046339;28;20261;-64
2023/12/07 11:54:27;;;;;;;30.70;11.73;;;;;;;;;;5046072;28;20227;-64
2023/12/07 11:56:54;;;;;;;25.27;10.73;;;;;;;;;;5045893;28;20227;-64
2023/12/07 11:59:22;;;;;;;26.67;10.57;;;;;;;;;;5046433;28;20263;-64
2023/12/07 12:01:49;;;;;;;20.37;10.13;;;;;;;;;;5044600;28;20705;-65
2023/12/07 12:04:17;;;;;;;24.57;12.37;;;;;;;;;;5046014;28;20216;-64
2023/12/07 12:06:43;;;;;;;23.97;11.37;;;;;;;;;;5046334;28;20223;-63
2023/12/07 12:09:11;;;;;;;25.87;11.33;;;;;;;;;;5043136;28;20224;-68
2023/12/07 12:11:39;;;;;;;21.97;10.23;;;;;;;;;;5045451;28;20210;-62
2023/12/07 12:14:06;;;;;;;29.73;11.63;;;;;;;;;;5046158;28;20195;-62
2023/12/07 12:16:33;;;;;;;26.93;11.80;;;;;;;;;;5046113;28;20247;-62
2023/12/07 12:19:00;;;;;;;24.80;11.23;;;;;;;;;;5041727;28;20229;-63
2023/12/07 12:21:27;;;;;;;25.00;10.70;;;;;;;;;;5044512;28;20650;-65
2023/12/07 12:23:54;;;;;;;26.37;12.00;;;;;;;;;;5036223;28;20206;-64
2023/12/07 12:26:21;;;;;;;21.77;10.30;;;;;;;;;;5045267;28;20212;-63
2023/12/07 12:28:52;;;;;;;29.87;11.77;;;;;;;;;;5031645;28;20216;-63
2023/12/07 12:31:19;;;;;;;25.50;11.03;;;;;;;;;;5032730;28;20569;-62
2023/12/07 12:33:46;;;;;;;34.37;11.73;;;;;;;;;;5039398;28;20203;-64
2023/12/07 12:36:14;;;;;;;27.00;11.13;;;;;;;;;;5045593;28;20711;-63
2023/12/07 12:38:41;;;;;;;26.73;10.53;;;;;;;;;;5037822;28;20208;-63
2023/12/07 12:41:08;;;;;;;26.27;10.67;;;;;;;;;;5025517;28;20744;-63
2023/12/07 12:43:35;;;;;;;20.77;9.23;;;;;;;;;;5026247;28;20216;-63
2023/12/07 12:46:05;;;;;;;29.20;11.20;;;;;;;;;;5025877;28;20223;-63
2023/12/07 12:48:32;;;;;;;27.93;10.53;;;;;;;;;;5025518;28;20869;-63
2023/12/07 12:50:59;;;;;;;36.07;11.97;;;;;;;;;;5031141;28;20200;-62
2023/12/07 12:53:26;;;;;;;28.40;10.90;;;;;;;;;;5043148;28;20214;-63
2023/12/07 12:55:53;;;;;;;26.83;12.10;;;;;;;;;;5041442;28;20203;-62
2023/12/07 12:58:22;;;;;;;28.63;11.30;;;;;;;;;;5037683;28;20207;-62
2023/12/07 13:00:49;;;;;;;28.97;10.70;;;;;;;;;;5032527;28;20961;-62
2023/12/07 13:03:17;;;;;;;30.53;11.10;;;;;;;;;;5042602;28;20780;-63
2023/12/07 13:05:44;;;;;;;31.30;12.07;;;;;;;;;;5041865;28;20215;-62
2023/12/07 13:08:11;;;;;;;26.63;9.90;;;;;;;;;;5030873;28;20243;-62
2023/12/07 13:10:39;;;;;;;35.63;12.00;;;;;;;;;;5028425;28;20235;-63
2023/12/07 13:13:07;;;;;;;29.97;11.67;;;;;;;;;;5025474;28;20565;-62
2023/12/07 13:15:34;;;;;;;34.50;12.27;;;;;;;;;;5031341;28;20204;-66
2023/12/07 13:18:01;;;;;;;32.40;10.53;;;;;;;;;;5024892;28;20306;-62
2023/12/07 13:20:29;;;;;;;30.07;11.37;;;;;;;;;;5039673;28;20219;-63
2023/12/07 13:22:56;;;;;;;31.53;11.63;;;;;;;;;;5038834;28;20302;-62
2023/12/07 13:25:23;;;;;;;29.90;11.20;;;;;;;;;;5034575;28;20235;-62
2023/12/07 13:27:50;;;;;;;26.27;9.43;;;;;;;;;;5039241;28;20939;-63
2023/12/07 13:30:17;;;;;;;29.97;11.27;;;;;;;;;;5036699;28;20208;-62
2023/12/07 13:32:44;;;;;;;33.87;11.17;;;;;;;;;;5033455;28;20216;-62
2023/12/07 13:35:12;;;;;;;28.70;11.30;;;;;;;;;;5042982;28;20208;-62
2023/12/07 13:37:41;;;;;;;26.23;9.90;;;;;;;;;;5044130;28;20208;-62
2023/12/07 13:40:10;;;;;;;35.73;11.47;;;;;;;;;;5028243;28;20254;-62
2023/12/07 13:42:37;;;;;;;30.83;11.70;;;;;;;;;;5022631;28;20302;-62
2023/12/07 13:45:05;;;;;;;35.57;13.03;;;;;;;;;;5029071;28;20200;-62
2023/12/07 13:47:32;;;;;;;31.57;12.47;;;;;;;;;;5024991;28;20204;-62
2023/12/07 13:49:59;;;;;;;33.30;13.60;;;;;;;;;;5040202;28;20199;-62
2023/12/07 13:52:28;;;;;;;34.53;12.60;;;;;;;;;;5043766;28;20500;-62
2023/12/07 13:54:57;;;;;;;30.70;12.20;;;;;;;;;;5029617;28;20561;-62
2023/12/07 13:57:25;;;;;;;30.80;11.90;;;;;;;;;;5024313;28;20228;-62
2023/12/07 13:59:52;;;;;;;31.40;11.50;;;;;;;;;;5024390;28;20209;-62
2023/12/07 14:02:19;;;;;;;41.13;13.70;;;;;;;;;;5028474;28;20230;-62
2023/12/07 14:04:49;;;;;;;29.47;12.00;;;;;;;;;;5040852;28;20200;-62
2023/12/07 14:07:17;;;;;;;34.17;12.17;;;;;;;;;;5036148;28;20208;-63
2023/12/07 14:09:44;;;;;;;30.70;12.93;;;;;;;;;;5044584;28;20212;-63
2023/12/07 14:12:14;;;;;;;32.93;12.67;;;;;;;;;;5026589;28;20216;-62
2023/12/07 14:14:41;;;;;;;34.50;13.43;;;;;;;;;;5028461;28;20698;-63
2023/12/07 14:17:09;;;;;;;34.40;12.67;;;;;;;;;;5028400;28;20247;-63
2023/12/07 14:19:36;;;;;;;32.23;11.73;;;;;;;;;;5043983;28;20212;-63
2023/12/07 14:22:03;;;;;;;25.20;11.13;;;;;;;;;;5044623;28;20636;-63
2023/12/07 14:24:31;;;;;;;31.60;11.93;;;;;;;;;;5030170;28;20303;-63
2023/12/07 14:26:58;;;;;;;30.70;11.20;;;;;;;;;;5028738;28;20568;-63
2023/12/07 14:29:27;;;;;;;33.27;13.63;;;;;;;;;;5029855;28;20228;-63
2023/12/07 14:31:54;;;;;;;36.07;12.53;;;;;;;;;;5046071;28;20624;-65